Terminal Aerodrome Forecast
Issued by NWS

Home | Current Version | Previous Version | Text Only | Print | Product List | Glossary On
Versions: 1 2 3 4 5 6 7 8 9 10 11 12 13
647
FTUS43 KICT 211128
TAFCNU
TAF
KCNU 211128Z 2112/2212 06013KT P6SM VCSH SCT015 OVC060
     FM211500 07017KT P6SM VCSH SCT015 OVC035
      TEMPO 2115/2118 5SM TSRA OVC015CB
     FM211800 06017KT 6SM -RA VCTS SCT010 OVC025CB
      TEMPO 2118/2122 3SM TSRA OVC008CB
     FM212200 05022G30KT 3SM RA OVC008=

USA.gov is the U.S. government's official web portal to all federal, state and local government web resources and services.